createdAt,value
2017-09-19T12:32:04.778Z,16.91
2017-09-19T12:33:06.654Z,16.93
2017-09-19T12:34:08.537Z,17.04
2017-09-19T12:35:10.423Z,17.06
2017-09-19T12:36:12.250Z,17.06
2017-09-19T12:37:14.075Z,17.18
2017-09-19T12:38:15.961Z,17.25
2017-09-19T12:39:17.846Z,17.22
2017-09-19T12:40:19.734Z,17.31
2017-09-19T12:41:33.896Z,17.41
2017-09-19T12:42:35.784Z,17.46
2017-09-19T12:43:37.669Z,17.62
2017-09-19T12:44:39.562Z,17.64
2017-09-19T12:45:41.393Z,17.68
2017-09-19T12:46:43.564Z,17.71
2017-09-19T12:47:45.420Z,17.86
2017-09-19T12:48:47.307Z,18.02
2017-09-19T12:49:49.559Z,18.23
2017-09-19T12:51:03.785Z,18.39
2017-09-19T12:52:05.636Z,18.42
2017-09-19T12:53:07.482Z,18.48
2017-09-19T12:54:09.311Z,18.44
2017-09-19T12:55:11.165Z,18.41
2017-09-19T12:56:13.480Z,18.47
2017-09-19T12:57:15.336Z,18.48
2017-09-19T12:58:17.178Z,18.47
2017-09-19T12:59:19.012Z,18.42
2017-09-19T13:00:33.178Z,18.41
2017-09-19T13:01:35.096Z,18.44
2017-09-19T13:02:36.991Z,18.55
2017-09-19T13:03:39.203Z,18.69
2017-09-19T13:04:41.012Z,18.73
2017-09-19T13:05:42.831Z,18.55
2017-09-19T13:06:45.396Z,18.48
2017-09-19T13:07:48.532Z,18.45
2017-09-19T13:08:50.492Z,18.50
2017-09-19T13:10:04.713Z,18.70
2017-09-19T13:11:06.601Z,18.69
2017-09-19T13:12:08.489Z,18.76
2017-09-19T13:13:10.383Z,18.78
2017-09-19T13:14:12.392Z,18.75
2017-09-19T13:15:14.198Z,18.70
2017-09-19T13:16:16.089Z,18.76
2017-09-19T13:17:18.015Z,18.67
2017-09-19T13:18:19.869Z,18.73
2017-09-19T13:19:34.097Z,18.85
2017-09-19T13:20:35.985Z,19.14
2017-09-19T13:21:37.988Z,19.18
2017-09-19T13:22:39.906Z,19.25
2017-09-19T13:23:41.780Z,19.21
2017-09-19T13:24:43.599Z,19.18
2017-09-19T13:25:45.762Z,19.28
2017-09-19T13:26:47.805Z,19.36
2017-09-19T13:27:49.698Z,19.22
2017-09-19T13:29:03.862Z,19.06
2017-09-19T13:30:05.845Z,19.08
2017-09-19T13:31:08.038Z,19.22
2017-09-19T13:32:10.039Z,19.28
2017-09-19T13:33:11.883Z,19.39
2017-09-19T13:34:13.735Z,19.44
2017-09-19T13:35:15.634Z,19.47
2017-09-19T13:36:17.537Z,19.33
2017-09-19T13:37:19.429Z,19.25
2017-09-19T13:38:33.595Z,19.10
2017-09-19T13:39:35.522Z,18.94
2017-09-19T13:40:37.414Z,18.87
2017-09-19T13:41:39.309Z,18.78
2017-09-19T13:42:41.141Z,18.76
2017-09-19T13:43:42.969Z,18.73
2017-09-19T13:44:44.861Z,18.65
2017-09-19T13:45:46.753Z,18.81
2017-09-19T13:46:48.668Z,18.80
2017-09-19T13:48:02.845Z,18.80
2017-09-19T13:49:04.897Z,18.70
2017-09-19T13:50:06.829Z,18.66
2017-09-19T13:51:08.719Z,18.66
2017-09-19T13:52:10.554Z,18.70
2017-09-19T13:53:12.383Z,18.65
2017-09-19T13:54:14.288Z,18.58
2017-09-19T13:55:16.177Z,18.55
2017-09-19T13:56:18.069Z,18.51
2017-09-19T13:57:32.614Z,18.47
2017-09-19T13:58:34.868Z,18.62
2017-09-19T13:59:37.233Z,18.67
2017-09-19T14:00:39.603Z,18.63
2017-09-19T14:01:41.821Z,18.67
2017-09-19T14:02:44.103Z,18.67
2017-09-19T14:03:46.484Z,18.66
2017-09-19T14:04:48.811Z,18.73
2017-09-19T14:05:51.229Z,18.66
2017-09-19T14:07:05.935Z,18.73
2017-09-19T14:08:08.352Z,18.82
2017-09-19T14:09:10.667Z,18.80
2017-09-19T14:10:12.998Z,18.80
2017-09-19T14:11:15.287Z,18.75
2017-09-19T14:12:17.600Z,18.76
2017-09-19T14:13:19.564Z,18.88
2017-09-19T14:14:21.449Z,18.92
2017-09-19T14:15:23.382Z,19.04
2017-09-19T14:16:37.552Z,18.90
2017-09-19T14:17:39.840Z,18.80
2017-09-19T14:18:41.864Z,18.70
2017-09-19T14:19:43.751Z,18.58
2017-09-19T14:20:45.789Z,18.57
2017-09-19T14:21:48.198Z,18.47
2017-09-19T14:22:50.152Z,18.48
2017-09-19T14:23:52.479Z,18.52
2017-09-19T14:24:54.808Z,18.62
2017-09-19T14:26:09.197Z,18.78
2017-09-19T14:27:11.096Z,18.65
2017-09-19T14:28:13.393Z,18.63
2017-09-19T14:29:15.368Z,18.57
2017-09-19T14:30:17.338Z,18.52
2017-09-19T14:31:19.586Z,18.51
2017-09-19T14:32:21.465Z,18.45
2017-09-19T14:33:23.686Z,18.39
2017-09-19T14:34:26.036Z,18.36
2017-09-19T14:35:40.679Z,18.33
2017-09-19T14:36:42.721Z,18.23
2017-09-19T14:37:45.085Z,18.21
2017-09-19T14:38:47.416Z,18.20
2017-09-19T14:39:49.211Z,18.23
2017-09-19T14:40:51.039Z,18.23
2017-09-19T14:41:52.927Z,18.29
2017-09-19T14:42:55.302Z,18.33
2017-09-19T14:43:57.544Z,18.15
2017-09-19T14:45:12.226Z,18.18
2017-09-19T14:46:14.695Z,18.17
2017-09-19T14:47:16.989Z,18.18
2017-09-19T14:48:19.291Z,18.32
2017-09-19T14:49:21.640Z,18.25
2017-09-19T14:50:23.866Z,18.23
2017-09-19T14:51:25.942Z,18.25
2017-09-19T14:52:28.328Z,18.32
2017-09-19T14:53:30.444Z,18.23
2017-09-19T14:54:45.014Z,18.15
2017-09-19T14:55:47.650Z,18.11
2017-09-19T14:56:49.990Z,18.14
2017-09-19T14:57:52.051Z,18.11
2017-09-19T14:58:54.320Z,18.18
2017-09-19T14:59:56.267Z,18.14
2017-09-19T15:00:58.582Z,18.21
2017-09-19T15:02:00.590Z,18.21
2017-09-19T15:03:02.944Z,18.15
2017-09-19T15:04:17.164Z,18.12
2017-09-19T15:05:19.115Z,18.23
2017-09-19T15:06:21.000Z,18.15
2017-09-19T15:07:22.935Z,18.02
2017-09-19T15:08:25.200Z,18.00
2017-09-19T15:09:27.581Z,17.96
2017-09-19T15:10:29.588Z,17.99
2017-09-19T15:11:31.581Z,17.95
2017-09-19T15:12:33.990Z,18.05
2017-09-19T15:13:48.345Z,18.08
2017-09-19T15:14:50.232Z,18.10
2017-09-19T15:15:52.537Z,18.14
2017-09-19T15:16:54.868Z,18.11
2017-09-19T15:17:57.272Z,18.15
2017-09-19T15:18:59.692Z,18.21
2017-09-19T15:20:01.885Z,18.37
2017-09-19T15:21:03.834Z,18.30
2017-09-19T15:22:06.173Z,18.32
2017-09-19T15:23:20.910Z,18.35
2017-09-19T15:24:23.175Z,18.23
2017-09-19T15:25:25.106Z,18.15
2017-09-19T15:26:26.999Z,18.17
2017-09-19T15:27:28.830Z,18.12
2017-09-19T15:28:30.788Z,18.18
2017-09-19T15:29:32.665Z,18.20
2017-09-19T15:30:34.623Z,18.25
2017-09-19T15:31:36.511Z,18.15
2017-09-19T15:32:50.679Z,18.14
2017-09-19T15:33:52.562Z,18.14
2017-09-19T15:34:54.500Z,18.17
2017-09-19T15:35:56.394Z,18.14
2017-09-19T15:36:58.225Z,18.03
2017-09-19T15:38:00.173Z,18.00
2017-09-19T15:39:02.071Z,18.11
2017-09-19T15:40:04.041Z,17.95
2017-09-19T15:41:05.945Z,17.89
2017-09-19T15:42:20.111Z,17.79
2017-09-19T15:43:22.011Z,17.75
2017-09-19T15:44:23.919Z,17.71
2017-09-19T15:45:25.910Z,17.68
2017-09-19T15:46:27.740Z,17.70
2017-09-19T15:47:29.581Z,17.58
2017-09-19T15:48:31.620Z,17.46
2017-09-19T15:49:33.484Z,17.40
2017-09-19T15:50:35.422Z,17.54
2017-09-19T15:51:49.591Z,17.51
2017-09-19T15:52:51.475Z,17.55
2017-09-19T15:53:54.178Z,17.56
2017-09-19T15:54:56.594Z,17.51
2017-09-19T15:55:58.501Z,17.63
2017-09-19T15:57:00.319Z,17.64
2017-09-19T15:58:02.622Z,17.46
2017-09-19T15:59:04.497Z,17.46
2017-09-19T16:00:06.385Z,17.41
2017-09-19T16:01:20.890Z,17.44
2017-09-19T16:02:22.753Z,17.34
2017-09-19T16:03:24.675Z,17.36
2017-09-19T16:04:26.569Z,17.43
2017-09-19T16:05:28.496Z,17.30
2017-09-19T16:06:30.371Z,17.25
2017-09-19T16:07:32.216Z,17.30
2017-09-19T16:08:34.108Z,17.12
2017-09-19T16:09:35.998Z,17.08
2017-09-19T16:10:50.161Z,17.12
2017-09-19T16:11:52.048Z,17.18
2017-09-19T16:12:54.001Z,17.12
2017-09-19T16:13:55.884Z,17.04
2017-09-19T16:14:57.714Z,17.07
2017-09-19T16:15:59.540Z,17.11
2017-09-19T16:17:01.445Z,17.14
2017-09-19T16:18:03.358Z,17.23
2017-09-19T16:19:05.247Z,17.28
2017-09-19T16:20:19.408Z,17.21
2017-09-19T16:21:21.303Z,17.33
2017-09-19T16:22:23.193Z,17.30
2017-09-19T16:23:25.113Z,17.19
2017-09-19T16:24:26.950Z,17.31
2017-09-19T16:25:28.775Z,17.21
2017-09-19T16:26:30.725Z,17.18
2017-09-19T16:27:32.638Z,17.04
2017-09-19T16:28:34.547Z,17.15
2017-09-19T16:29:48.695Z,17.07
2017-09-19T16:30:50.584Z,17.03
2017-09-19T16:31:52.486Z,17.06
2017-09-19T16:32:54.423Z,16.96
2017-09-19T16:33:56.227Z,17.00
2017-09-19T16:34:58.054Z,17.04
2017-09-19T16:36:00.268Z,16.98
2017-09-19T16:37:02.180Z,16.91
2017-09-19T16:38:04.074Z,16.89
2017-09-19T16:39:18.696Z,16.86
2017-09-19T16:40:20.912Z,16.91
2017-09-19T16:41:22.939Z,16.81
2017-09-19T16:42:24.862Z,16.85
2017-09-19T16:43:26.720Z,16.79
2017-09-19T16:44:28.548Z,16.83
2017-09-19T16:45:30.440Z,16.78
2017-09-19T16:46:32.372Z,16.81
2017-09-19T16:47:34.594Z,16.71
2017-09-19T16:48:49.297Z,16.82
2017-09-19T16:49:51.372Z,16.83
2017-09-19T16:50:53.273Z,16.83
2017-09-19T16:51:55.164Z,16.78
2017-09-19T16:52:56.991Z,16.75
2017-09-19T16:53:58.829Z,16.67
2017-09-19T16:55:00.710Z,16.73
2017-09-19T16:56:02.599Z,16.58
2017-09-19T16:57:04.492Z,16.57
2017-09-19T16:58:18.656Z,16.48
2017-09-19T16:59:20.564Z,16.42
2017-09-19T17:00:22.450Z,16.38
2017-09-19T17:01:24.375Z,16.34
2017-09-19T17:02:26.255Z,16.35
2017-09-19T17:03:28.140Z,16.23
2017-09-19T17:04:30.495Z,16.25
2017-09-19T17:05:32.354Z,16.12
2017-09-19T17:06:34.353Z,16.15
2017-09-19T17:07:48.573Z,16.05
2017-09-19T17:08:50.470Z,15.97
2017-09-19T17:09:52.355Z,15.83
2017-09-19T17:10:54.253Z,15.72
2017-09-19T17:11:56.080Z,15.74
2017-09-19T17:12:57.945Z,15.65
2017-09-19T17:13:59.801Z,15.68
2017-09-19T17:15:01.704Z,15.57
2017-09-19T17:16:03.593Z,15.65
2017-09-19T17:17:17.789Z,15.43
2017-09-19T17:18:19.692Z,15.39
2017-09-19T17:19:21.563Z,15.49
2017-09-19T17:20:23.460Z,15.47
2017-09-19T17:21:25.284Z,15.44
2017-09-19T17:22:27.213Z,15.27
2017-09-19T17:23:29.136Z,15.39
2017-09-19T17:24:31.038Z,15.36
2017-09-19T17:25:32.912Z,15.39
2017-09-19T17:26:47.085Z,15.38
2017-09-19T17:27:48.985Z,15.31
2017-09-19T17:28:50.864Z,15.28
2017-09-19T17:29:52.758Z,15.23
2017-09-19T17:30:54.580Z,15.20
2017-09-19T17:31:56.408Z,15.14
2017-09-19T17:32:58.294Z,15.14
2017-09-19T17:34:00.180Z,15.09
2017-09-19T17:35:02.070Z,14.99
2017-09-19T17:36:16.225Z,14.98
2017-09-19T17:37:18.110Z,15.02
2017-09-19T17:38:19.996Z,14.96
2017-09-19T17:39:21.884Z,14.96
2017-09-19T17:40:23.709Z,14.91
2017-09-19T17:41:25.530Z,14.92
2017-09-19T17:42:27.413Z,14.86
2017-09-19T17:43:29.298Z,14.70
2017-09-19T17:44:31.223Z,14.77
2017-09-19T17:45:45.345Z,14.72
2017-09-19T17:46:47.241Z,14.68
2017-09-19T17:47:49.122Z,14.60
2017-09-19T17:48:51.014Z,14.51
2017-09-19T17:49:52.837Z,14.55
2017-09-19T17:50:54.658Z,14.52
2017-09-19T17:51:56.544Z,14.46
2017-09-19T17:52:58.438Z,14.47
2017-09-19T17:54:00.327Z,14.39
2017-09-19T17:55:14.486Z,14.33
2017-09-19T17:56:16.369Z,14.42
2017-09-19T17:57:18.263Z,14.25
2017-09-19T17:58:20.149Z,14.27
2017-09-19T17:59:21.972Z,14.24
2017-09-19T18:00:23.795Z,14.28
2017-09-19T18:01:25.682Z,14.28
2017-09-19T18:02:27.570Z,14.20
2017-09-19T18:03:29.456Z,14.20
2017-09-19T18:04:43.613Z,14.18
2017-09-19T18:05:45.545Z,14.06
2017-09-19T18:06:47.407Z,14.17
